sensor_id;sensor_type;location;lat;lon;timestamp;P1;durP1;ratioP1;P2;durP2;ratioP2
25922;SDS011;13725;51.170;4.442;2023-05-14T00:01:38;54.17;;;32.47;;
25922;SDS011;13725;51.170;4.442;2023-05-14T00:04:06;61.25;;;32.90;;
25922;SDS011;13725;51.170;4.442;2023-05-14T00:06:32;58.30;;;32.85;;
25922;SDS011;13725;51.170;4.442;2023-05-14T00:08:58;59.55;;;32.70;;
25922;SDS011;13725;51.170;4.442;2023-05-14T00:11:23;56.65;;;33.33;;
25922;SDS011;13725;51.170;4.442;2023-05-14T00:13:49;56.10;;;32.22;;
25922;SDS011;13725;51.170;4.442;2023-05-14T00:16:15;54.28;;;31.67;;
25922;SDS011;13725;51.170;4.442;2023-05-14T00:18:41;58.35;;;33.30;;
25922;SDS011;13725;51.170;4.442;2023-05-14T00:21:07;71.30;;;36.28;;
25922;SDS011;13725;51.170;4.442;2023-05-14T00:23:32;60.80;;;34.30;;
25922;SDS011;13725;51.170;4.442;2023-05-14T00:25:59;58.83;;;32.97;;
25922;SDS011;13725;51.170;4.442;2023-05-14T00:28:25;57.63;;;33.95;;
25922;SDS011;13725;51.170;4.442;2023-05-14T00:30:51;57.10;;;33.63;;
25922;SDS011;13725;51.170;4.442;2023-05-14T00:33:16;60.50;;;33.92;;
25922;SDS011;13725;51.170;4.442;2023-05-14T00:35:43;61.97;;;33.83;;
25922;SDS011;13725;51.170;4.442;2023-05-14T00:38:10;58.03;;;33.58;;
25922;SDS011;13725;51.170;4.442;2023-05-14T00:40:41;56.35;;;32.05;;
25922;SDS011;13725;51.170;4.442;2023-05-14T00:43:10;58.75;;;33.58;;
25922;SDS011;13725;51.170;4.442;2023-05-14T00:45:36;60.08;;;32.17;;
25922;SDS011;13725;51.170;4.442;2023-05-14T00:48:03;61.85;;;34.15;;
25922;SDS011;13725;51.170;4.442;2023-05-14T00:50:29;65.57;;;34.85;;
25922;SDS011;13725;51.170;4.442;2023-05-14T00:52:55;57.47;;;32.95;;
25922;SDS011;13725;51.170;4.442;2023-05-14T00:55:21;59.05;;;32.88;;
25922;SDS011;13725;51.170;4.442;2023-05-14T00:57:48;57.30;;;33.03;;
25922;SDS011;13725;51.170;4.442;2023-05-14T01:00:15;57.88;;;33.88;;
25922;SDS011;13725;51.170;4.442;2023-05-14T01:02:41;60.38;;;34.03;;
25922;SDS011;13725;51.170;4.442;2023-05-14T01:05:07;58.38;;;33.03;;
25922;SDS011;13725;51.170;4.442;2023-05-14T01:11:11;59.42;;;31.50;;
25922;SDS011;13725;51.170;4.442;2023-05-14T01:13:47;54.95;;;32.72;;
25922;SDS011;13725;51.170;4.442;2023-05-14T01:16:27;56.95;;;35.30;;
25922;SDS011;13725;51.170;4.442;2023-05-14T01:18:55;61.50;;;33.28;;
25922;SDS011;13725;51.170;4.442;2023-05-14T01:21:43;56.97;;;33.78;;
25922;SDS011;13725;51.170;4.442;2023-05-14T01:24:08;62.55;;;33.05;;
25922;SDS011;13725;51.170;4.442;2023-05-14T01:26:34;54.45;;;33.97;;
25922;SDS011;13725;51.170;4.442;2023-05-14T01:29:03;61.20;;;32.45;;
25922;SDS011;13725;51.170;4.442;2023-05-14T01:31:35;60.03;;;32.72;;
25922;SDS011;13725;51.170;4.442;2023-05-14T01:34:04;58.58;;;32.25;;
25922;SDS011;13725;51.170;4.442;2023-05-14T01:36:32;57.88;;;32.28;;
25922;SDS011;13725;51.170;4.442;2023-05-14T01:38:59;54.08;;;33.00;;
25922;SDS011;13725;51.170;4.442;2023-05-14T01:41:27;53.95;;;31.50;;
25922;SDS011;13725;51.170;4.442;2023-05-14T01:43:55;52.70;;;31.40;;
25922;SDS011;13725;51.170;4.442;2023-05-14T01:46:22;58.60;;;32.13;;
25922;SDS011;13725;51.170;4.442;2023-05-14T01:48:49;48.20;;;32.28;;
25922;SDS011;13725;51.170;4.442;2023-05-14T01:51:15;53.28;;;31.55;;
25922;SDS011;13725;51.170;4.442;2023-05-14T01:53:40;57.97;;;32.30;;
25922;SDS011;13725;51.170;4.442;2023-05-14T01:56:07;54.42;;;33.15;;
25922;SDS011;13725;51.170;4.442;2023-05-14T01:58:33;58.35;;;31.73;;
25922;SDS011;13725;51.170;4.442;2023-05-14T02:00:59;63.08;;;31.80;;
25922;SDS011;13725;51.170;4.442;2023-05-14T02:03:26;52.78;;;31.13;;
25922;SDS011;13725;51.170;4.442;2023-05-14T02:05:51;49.35;;;32.03;;
25922;SDS011;13725;51.170;4.442;2023-05-14T02:08:17;53.22;;;31.85;;
25922;SDS011;13725;51.170;4.442;2023-05-14T02:10:43;56.45;;;32.55;;
25922;SDS011;13725;51.170;4.442;2023-05-14T02:13:08;57.80;;;31.30;;
25922;SDS011;13725;51.170;4.442;2023-05-14T02:15:34;57.65;;;32.83;;
25922;SDS011;13725;51.170;4.442;2023-05-14T02:18:00;52.45;;;32.25;;
25922;SDS011;13725;51.170;4.442;2023-05-14T02:20:26;56.63;;;32.10;;
25922;SDS011;13725;51.170;4.442;2023-05-14T02:22:51;55.95;;;31.17;;
25922;SDS011;13725;51.170;4.442;2023-05-14T02:25:17;51.33;;;31.20;;
25922;SDS011;13725;51.170;4.442;2023-05-14T02:27:43;50.95;;;30.30;;
25922;SDS011;13725;51.170;4.442;2023-05-14T02:30:09;54.22;;;30.85;;
25922;SDS011;13725;51.170;4.442;2023-05-14T02:32:35;50.97;;;30.83;;
25922;SDS011;13725;51.170;4.442;2023-05-14T02:35:01;52.67;;;30.83;;
25922;SDS011;13725;51.170;4.442;2023-05-14T02:37:27;59.30;;;31.77;;
25922;SDS011;13725;51.170;4.442;2023-05-14T02:39:53;51.40;;;29.92;;
25922;SDS011;13725;51.170;4.442;2023-05-14T02:42:21;56.13;;;30.98;;
25922;SDS011;13725;51.170;4.442;2023-05-14T02:44:47;57.83;;;31.08;;
25922;SDS011;13725;51.170;4.442;2023-05-14T02:47:12;58.85;;;32.42;;
25922;SDS011;13725;51.170;4.442;2023-05-14T02:49:38;52.72;;;32.58;;
25922;SDS011;13725;51.170;4.442;2023-05-14T02:52:04;50.20;;;29.65;;
25922;SDS011;13725;51.170;4.442;2023-05-14T02:54:30;52.17;;;30.95;;
25922;SDS011;13725;51.170;4.442;2023-05-14T02:56:56;55.03;;;30.13;;
25922;SDS011;13725;51.170;4.442;2023-05-14T02:59:22;52.47;;;29.90;;
25922;SDS011;13725;51.170;4.442;2023-05-14T03:01:49;52.25;;;29.83;;
25922;SDS011;13725;51.170;4.442;2023-05-14T03:04:15;50.40;;;29.23;;
25922;SDS011;13725;51.170;4.442;2023-05-14T03:06:40;58.47;;;29.80;;
25922;SDS011;13725;51.170;4.442;2023-05-14T03:09:06;56.75;;;31.42;;
25922;SDS011;13725;51.170;4.442;2023-05-14T03:11:32;49.13;;;29.05;;
25922;SDS011;13725;51.170;4.442;2023-05-14T03:13:58;51.53;;;30.25;;
25922;SDS011;13725;51.170;4.442;2023-05-14T03:16:24;53.70;;;29.80;;
25922;SDS011;13725;51.170;4.442;2023-05-14T03:18:49;55.05;;;30.30;;
25922;SDS011;13725;51.170;4.442;2023-05-14T03:21:15;52.40;;;30.42;;
25922;SDS011;13725;51.170;4.442;2023-05-14T03:23:41;54.03;;;30.83;;
25922;SDS011;13725;51.170;4.442;2023-05-14T03:26:07;57.20;;;29.65;;
25922;SDS011;13725;51.170;4.442;2023-05-14T03:28:33;55.00;;;30.17;;
25922;SDS011;13725;51.170;4.442;2023-05-14T03:30:59;54.20;;;30.10;;
25922;SDS011;13725;51.170;4.442;2023-05-14T03:33:25;56.90;;;29.85;;
25922;SDS011;13725;51.170;4.442;2023-05-14T03:35:51;56.70;;;31.63;;
25922;SDS011;13725;51.170;4.442;2023-05-14T03:38:16;51.83;;;29.65;;
25922;SDS011;13725;51.170;4.442;2023-05-14T03:40:45;55.60;;;32.47;;
25922;SDS011;13725;51.170;4.442;2023-05-14T03:43:11;55.97;;;31.65;;
25922;SDS011;13725;51.170;4.442;2023-05-14T03:45:37;53.13;;;29.50;;
25922;SDS011;13725;51.170;4.442;2023-05-14T03:48:03;53.35;;;31.10;;
25922;SDS011;13725;51.170;4.442;2023-05-14T03:50:30;55.67;;;31.80;;
25922;SDS011;13725;51.170;4.442;2023-05-14T03:52:56;62.03;;;33.28;;
25922;SDS011;13725;51.170;4.442;2023-05-14T03:55:22;59.33;;;31.98;;
25922;SDS011;13725;51.170;4.442;2023-05-14T03:57:47;60.92;;;31.60;;
25922;SDS011;13725;51.170;4.442;2023-05-14T04:00:13;58.65;;;32.92;;
25922;SDS011;13725;51.170;4.442;2023-05-14T04:02:42;59.13;;;30.73;;
25922;SDS011;13725;51.170;4.442;2023-05-14T04:05:08;58.17;;;31.10;;
25922;SDS011;13725;51.170;4.442;2023-05-14T04:07:34;57.03;;;30.90;;
25922;SDS011;13725;51.170;4.442;2023-05-14T04:10:01;61.50;;;32.70;;
25922;SDS011;13725;51.170;4.442;2023-05-14T04:12:27;56.58;;;31.25;;
25922;SDS011;13725;51.170;4.442;2023-05-14T04:14:53;52.50;;;30.67;;
25922;SDS011;13725;51.170;4.442;2023-05-14T04:17:19;56.47;;;30.50;;
25922;SDS011;13725;51.170;4.442;2023-05-14T04:19:46;56.80;;;30.52;;
25922;SDS011;13725;51.170;4.442;2023-05-14T04:22:12;54.05;;;31.60;;
25922;SDS011;13725;51.170;4.442;2023-05-14T04:24:38;57.20;;;30.05;;
25922;SDS011;13725;51.170;4.442;2023-05-14T04:27:04;56.45;;;31.20;;
25922;SDS011;13725;51.170;4.442;2023-05-14T04:29:31;63.10;;;33.22;;
25922;SDS011;13725;51.170;4.442;2023-05-14T04:31:56;60.13;;;32.05;;
25922;SDS011;13725;51.170;4.442;2023-05-14T04:34:22;56.95;;;31.02;;
25922;SDS011;13725;51.170;4.442;2023-05-14T04:36:48;66.18;;;34.13;;
25922;SDS011;13725;51.170;4.442;2023-05-14T04:39:15;63.13;;;33.65;;
25922;SDS011;13725;51.170;4.442;2023-05-14T04:41:41;60.42;;;32.90;;
25922;SDS011;13725;51.170;4.442;2023-05-14T04:44:07;65.38;;;33.25;;
25922;SDS011;13725;51.170;4.442;2023-05-14T04:46:33;60.47;;;32.95;;
25922;SDS011;13725;51.170;4.442;2023-05-14T04:48:59;65.82;;;33.50;;
25922;SDS011;13725;51.170;4.442;2023-05-14T04:51:24;65.97;;;33.75;;
25922;SDS011;13725;51.170;4.442;2023-05-14T04:53:50;67.47;;;33.15;;
25922;SDS011;13725;51.170;4.442;2023-05-14T04:56:16;63.47;;;34.40;;
25922;SDS011;13725;51.170;4.442;2023-05-14T04:58:42;69.85;;;32.13;;
25922;SDS011;13725;51.170;4.442;2023-05-14T05:01:08;60.55;;;31.45;;
25922;SDS011;13725;51.170;4.442;2023-05-14T05:03:34;62.53;;;33.17;;
25922;SDS011;13725;51.170;4.442;2023-05-14T05:05:59;63.72;;;33.08;;
25922;SDS011;13725;51.170;4.442;2023-05-14T05:08:25;60.95;;;32.00;;
25922;SDS011;13725;51.170;4.442;2023-05-14T05:10:51;62.83;;;31.55;;
25922;SDS011;13725;51.170;4.442;2023-05-14T05:13:17;58.00;;;31.50;;
25922;SDS011;13725;51.170;4.442;2023-05-14T05:15:43;70.13;;;31.63;;
25922;SDS011;13725;51.170;4.442;2023-05-14T05:18:09;65.40;;;31.05;;
25922;SDS011;13725;51.170;4.442;2023-05-14T05:20:34;55.47;;;30.17;;
25922;SDS011;13725;51.170;4.442;2023-05-14T05:23:00;60.15;;;31.38;;
25922;SDS011;13725;51.170;4.442;2023-05-14T05:25:26;59.53;;;30.33;;
25922;SDS011;13725;51.170;4.442;2023-05-14T05:27:52;55.70;;;30.23;;
25922;SDS011;13725;51.170;4.442;2023-05-14T05:30:17;57.45;;;30.67;;
25922;SDS011;13725;51.170;4.442;2023-05-14T05:32:43;52.55;;;29.80;;
25922;SDS011;13725;51.170;4.442;2023-05-14T05:35:09;59.17;;;29.75;;
25922;SDS011;13725;51.170;4.442;2023-05-14T05:37:35;58.90;;;31.05;;
25922;SDS011;13725;51.170;4.442;2023-05-14T05:40:01;61.90;;;31.33;;
25922;SDS011;13725;51.170;4.442;2023-05-14T05:42:28;54.92;;;29.77;;
25922;SDS011;13725;51.170;4.442;2023-05-14T05:44:54;61.63;;;30.15;;
25922;SDS011;13725;51.170;4.442;2023-05-14T05:47:20;64.60;;;30.40;;
25922;SDS011;13725;51.170;4.442;2023-05-14T05:49:46;56.42;;;29.20;;
25922;SDS011;13725;51.170;4.442;2023-05-14T05:52:12;58.17;;;31.77;;
25922;SDS011;13725;51.170;4.442;2023-05-14T05:54:37;57.80;;;30.50;;
25922;SDS011;13725;51.170;4.442;2023-05-14T05:57:04;60.63;;;30.67;;
25922;SDS011;13725;51.170;4.442;2023-05-14T05:59:30;61.22;;;29.92;;
25922;SDS011;13725;51.170;4.442;2023-05-14T06:01:56;57.90;;;31.58;;
25922;SDS011;13725;51.170;4.442;2023-05-14T06:04:22;62.88;;;31.05;;
25922;SDS011;13725;51.170;4.442;2023-05-14T06:06:48;49.92;;;28.25;;
25922;SDS011;13725;51.170;4.442;2023-05-14T06:09:14;53.80;;;27.55;;
25922;SDS011;13725;51.170;4.442;2023-05-14T06:11:40;46.45;;;27.30;;
25922;SDS011;13725;51.170;4.442;2023-05-14T06:14:05;50.53;;;27.15;;
25922;SDS011;13725;51.170;4.442;2023-05-14T06:16:31;50.05;;;26.25;;
25922;SDS011;13725;51.170;4.442;2023-05-14T06:18:57;46.10;;;27.02;;
25922;SDS011;13725;51.170;4.442;2023-05-14T06:21:23;55.42;;;28.30;;
25922;SDS011;13725;51.170;4.442;2023-05-14T06:23:49;44.90;;;26.60;;
25922;SDS011;13725;51.170;4.442;2023-05-14T06:26:15;44.47;;;26.70;;
25922;SDS011;13725;51.170;4.442;2023-05-14T06:28:40;44.72;;;26.15;;
25922;SDS011;13725;51.170;4.442;2023-05-14T06:31:06;45.97;;;26.88;;
25922;SDS011;13725;51.170;4.442;2023-05-14T06:33:32;48.10;;;27.05;;
25922;SDS011;13725;51.170;4.442;2023-05-14T06:36:02;46.92;;;27.55;;
25922;SDS011;13725;51.170;4.442;2023-05-14T06:38:29;57.17;;;29.80;;
25922;SDS011;13725;51.170;4.442;2023-05-14T06:40:55;48.78;;;28.00;;
25922;SDS011;13725;51.170;4.442;2023-05-14T06:43:21;50.67;;;29.70;;
25922;SDS011;13725;51.170;4.442;2023-05-14T06:45:47;51.35;;;28.75;;
25922;SDS011;13725;51.170;4.442;2023-05-14T06:48:14;51.95;;;27.98;;
25922;SDS011;13725;51.170;4.442;2023-05-14T06:50:43;53.03;;;28.27;;
25922;SDS011;13725;51.170;4.442;2023-05-14T06:53:09;43.55;;;26.63;;
25922;SDS011;13725;51.170;4.442;2023-05-14T06:55:35;42.65;;;25.50;;
25922;SDS011;13725;51.170;4.442;2023-05-14T06:58:01;45.30;;;27.20;;
25922;SDS011;13725;51.170;4.442;2023-05-14T07:00:27;49.97;;;27.58;;
25922;SDS011;13725;51.170;4.442;2023-05-14T07:02:54;45.78;;;26.85;;
25922;SDS011;13725;51.170;4.442;2023-05-14T07:05:20;49.17;;;28.83;;
25922;SDS011;13725;51.170;4.442;2023-05-14T07:07:45;48.90;;;27.42;;
25922;SDS011;13725;51.170;4.442;2023-05-14T07:10:11;48.00;;;28.02;;
25922;SDS011;13725;51.170;4.442;2023-05-14T07:12:37;50.35;;;28.38;;
25922;SDS011;13725;51.170;4.442;2023-05-14T07:15:03;45.10;;;28.88;;
25922;SDS011;13725;51.170;4.442;2023-05-14T07:17:29;43.20;;;27.17;;
25922;SDS011;13725;51.170;4.442;2023-05-14T07:19:56;44.67;;;27.58;;
25922;SDS011;13725;51.170;4.442;2023-05-14T07:22:21;38.67;;;25.92;;
25922;SDS011;13725;51.170;4.442;2023-05-14T07:24:47;43.45;;;26.38;;
25922;SDS011;13725;51.170;4.442;2023-05-14T07:27:13;41.70;;;26.33;;
25922;SDS011;13725;51.170;4.442;2023-05-14T07:29:41;40.92;;;24.85;;
25922;SDS011;13725;51.170;4.442;2023-05-14T07:32:06;35.58;;;23.52;;
25922;SDS011;13725;51.170;4.442;2023-05-14T07:34:32;38.35;;;22.95;;
25922;SDS011;13725;51.170;4.442;2023-05-14T07:36:58;32.80;;;23.10;;
25922;SDS011;13725;51.170;4.442;2023-05-14T07:39:24;30.73;;;21.50;;
25922;SDS011;13725;51.170;4.442;2023-05-14T07:41:50;30.08;;;21.00;;
25922;SDS011;13725;51.170;4.442;2023-05-14T07:44:18;29.40;;;20.38;;
25922;SDS011;13725;51.170;4.442;2023-05-14T07:46:45;27.52;;;20.52;;
25922;SDS011;13725;51.170;4.442;2023-05-14T07:49:11;27.40;;;21.02;;
25922;SDS011;13725;51.170;4.442;2023-05-14T07:51:37;31.90;;;22.00;;
25922;SDS011;13725;51.170;4.442;2023-05-14T07:54:03;32.63;;;22.67;;
25922;SDS011;13725;51.170;4.442;2023-05-14T07:56:29;31.08;;;23.42;;
25922;SDS011;13725;51.170;4.442;2023-05-14T07:58:54;35.53;;;24.50;;
25922;SDS011;13725;51.170;4.442;2023-05-14T08:01:20;31.80;;;24.80;;
25922;SDS011;13725;51.170;4.442;2023-05-14T08:03:46;35.78;;;25.75;;
25922;SDS011;13725;51.170;4.442;2023-05-14T08:06:12;36.20;;;25.30;;
25922;SDS011;13725;51.170;4.442;2023-05-14T08:08:38;36.85;;;26.67;;
25922;SDS011;13725;51.170;4.442;2023-05-14T08:11:04;34.70;;;25.63;;
25922;SDS011;13725;51.170;4.442;2023-05-14T08:13:30;38.22;;;27.13;;
25922;SDS011;13725;51.170;4.442;2023-05-14T08:15:56;38.60;;;26.50;;
25922;SDS011;13725;51.170;4.442;2023-05-14T08:18:22;36.55;;;26.13;;
25922;SDS011;13725;51.170;4.442;2023-05-14T08:20:48;38.42;;;25.48;;
25922;SDS011;13725;51.170;4.442;2023-05-14T08:23:13;40.28;;;26.83;;
25922;SDS011;13725;51.170;4.442;2023-05-14T08:25:39;38.38;;;27.15;;
25922;SDS011;13725;51.170;4.442;2023-05-14T08:28:06;41.20;;;27.60;;
25922;SDS011;13725;51.170;4.442;2023-05-14T08:30:32;35.63;;;27.50;;
25922;SDS011;13725;51.170;4.442;2023-05-14T08:32:58;41.83;;;28.50;;
25922;SDS011;13725;51.170;4.442;2023-05-14T08:35:24;40.15;;;27.90;;
25922;SDS011;13725;51.170;4.442;2023-05-14T08:37:50;38.78;;;28.83;;
25922;SDS011;13725;51.170;4.442;2023-05-14T08:40:16;38.45;;;27.00;;
25922;SDS011;13725;51.170;4.442;2023-05-14T08:42:42;33.90;;;26.02;;
25922;SDS011;13725;51.170;4.442;2023-05-14T08:45:19;31.65;;;23.98;;
25922;SDS011;13725;51.170;4.442;2023-05-14T08:47:49;31.85;;;22.80;;
25922;SDS011;13725;51.170;4.442;2023-05-14T08:50:16;29.13;;;20.75;;
25922;SDS011;13725;51.170;4.442;2023-05-14T08:52:44;28.27;;;21.73;;
25922;SDS011;13725;51.170;4.442;2023-05-14T08:55:10;25.58;;;21.90;;
25922;SDS011;13725;51.170;4.442;2023-05-14T08:57:37;27.50;;;21.73;;
25922;SDS011;13725;51.170;4.442;2023-05-14T09:00:03;25.20;;;19.88;;
25922;SDS011;13725;51.170;4.442;2023-05-14T09:02:32;27.50;;;20.70;;
25922;SDS011;13725;51.170;4.442;2023-05-14T09:05:00;27.88;;;20.92;;
25922;SDS011;13725;51.170;4.442;2023-05-14T09:07:27;26.88;;;20.60;;
25922;SDS011;13725;51.170;4.442;2023-05-14T09:09:53;24.33;;;21.30;;
25922;SDS011;13725;51.170;4.442;2023-05-14T09:12:19;25.38;;;19.35;;
25922;SDS011;13725;51.170;4.442;2023-05-14T09:14:46;24.60;;;20.02;;
25922;SDS011;13725;51.170;4.442;2023-05-14T09:17:12;21.58;;;19.15;;
25922;SDS011;13725;51.170;4.442;2023-05-14T09:19:39;23.58;;;20.17;;
25922;SDS011;13725;51.170;4.442;2023-05-14T09:22:07;23.30;;;19.85;;
25922;SDS011;13725;51.170;4.442;2023-05-14T09:24:35;22.52;;;19.90;;
25922;SDS011;13725;51.170;4.442;2023-05-14T09:27:03;26.83;;;19.92;;
25922;SDS011;13725;51.170;4.442;2023-05-14T09:29:29;22.80;;;20.17;;
25922;SDS011;13725;51.170;4.442;2023-05-14T09:31:56;25.90;;;20.50;;
25922;SDS011;13725;51.170;4.442;2023-05-14T09:34:28;30.95;;;22.17;;
25922;SDS011;13725;51.170;4.442;2023-05-14T09:36:56;29.33;;;22.70;;
25922;SDS011;13725;51.170;4.442;2023-05-14T09:39:23;22.88;;;20.38;;
25922;SDS011;13725;51.170;4.442;2023-05-14T09:41:49;26.45;;;20.73;;
25922;SDS011;13725;51.170;4.442;2023-05-14T09:44:16;24.02;;;20.13;;
25922;SDS011;13725;51.170;4.442;2023-05-14T09:46:45;27.08;;;19.33;;
25922;SDS011;13725;51.170;4.442;2023-05-14T09:49:12;28.88;;;19.38;;
25922;SDS011;13725;51.170;4.442;2023-05-14T09:51:38;25.38;;;21.10;;
25922;SDS011;13725;51.170;4.442;2023-05-14T09:54:04;23.73;;;18.95;;
25922;SDS011;13725;51.170;4.442;2023-05-14T09:56:34;20.48;;;18.30;;
25922;SDS011;13725;51.170;4.442;2023-05-14T09:59:01;21.08;;;18.77;;
25922;SDS011;13725;51.170;4.442;2023-05-14T10:01:28;24.65;;;18.80;;
25922;SDS011;13725;51.170;4.442;2023-05-14T10:03:56;23.48;;;17.63;;
25922;SDS011;13725;51.170;4.442;2023-05-14T10:06:22;30.90;;;19.98;;
25922;SDS011;13725;51.170;4.442;2023-05-14T10:08:55;22.45;;;17.33;;
25922;SDS011;13725;51.170;4.442;2023-05-14T10:11:24;24.37;;;18.10;;
25922;SDS011;13725;51.170;4.442;2023-05-14T10:13:58;20.85;;;16.77;;
25922;SDS011;13725;51.170;4.442;2023-05-14T10:16:33;21.80;;;17.90;;
25922;SDS011;13725;51.170;4.442;2023-05-14T10:19:03;21.20;;;18.52;;
25922;SDS011;13725;51.170;4.442;2023-05-14T10:21:33;25.73;;;19.80;;
25922;SDS011;13725;51.170;4.442;2023-05-14T10:24:01;21.88;;;18.15;;
25922;SDS011;13725;51.170;4.442;2023-05-14T10:26:29;22.50;;;19.42;;
25922;SDS011;13725;51.170;4.442;2023-05-14T10:28:56;22.73;;;19.52;;
25922;SDS011;13725;51.170;4.442;2023-05-14T10:31:33;25.17;;;19.23;;
25922;SDS011;13725;51.170;4.442;2023-05-14T10:34:34;22.75;;;19.95;;
25922;SDS011;13725;51.170;4.442;2023-05-14T10:42:15;19.40;;;17.20;;
25922;SDS011;13725;51.170;4.442;2023-05-14T10:44:47;21.35;;;17.20;;
25922;SDS011;13725;51.170;4.442;2023-05-14T10:47:23;19.65;;;16.75;;
25922;SDS011;13725;51.170;4.442;2023-05-14T10:49:52;19.67;;;17.45;;
25922;SDS011;13725;51.170;4.442;2023-05-14T10:52:19;20.48;;;17.27;;
25922;SDS011;13725;51.170;4.442;2023-05-14T10:54:49;22.35;;;17.35;;
25922;SDS011;13725;51.170;4.442;2023-05-14T10:57:19;19.88;;;15.43;;
25922;SDS011;13725;51.170;4.442;2023-05-14T10:59:47;22.15;;;15.05;;
25922;SDS011;13725;51.170;4.442;2023-05-14T11:02:39;16.40;;;14.07;;
25922;SDS011;13725;51.170;4.442;2023-05-14T11:05:05;17.67;;;14.88;;
25922;SDS011;13725;51.170;4.442;2023-05-14T11:07:43;19.60;;;15.30;;
25922;SDS011;13725;51.170;4.442;2023-05-14T11:10:11;23.83;;;16.23;;
25922;SDS011;13725;51.170;4.442;2023-05-14T11:12:39;18.20;;;14.60;;
25922;SDS011;13725;51.170;4.442;2023-05-14T11:15:07;17.85;;;14.95;;
25922;SDS011;13725;51.170;4.442;2023-05-14T11:17:35;19.52;;;14.57;;
25922;SDS011;13725;51.170;4.442;2023-05-14T11:20:02;15.80;;;14.13;;
25922;SDS011;13725;51.170;4.442;2023-05-14T11:22:35;17.38;;;14.27;;
25922;SDS011;13725;51.170;4.442;2023-05-14T11:25:02;21.52;;;14.95;;
25922;SDS011;13725;51.170;4.442;2023-05-14T11:27:29;21.98;;;14.70;;
25922;SDS011;13725;51.170;4.442;2023-05-14T11:29:56;18.20;;;14.45;;
25922;SDS011;13725;51.170;4.442;2023-05-14T11:32:22;17.52;;;15.55;;
25922;SDS011;13725;51.170;4.442;2023-05-14T11:34:48;16.02;;;13.05;;
25922;SDS011;13725;51.170;4.442;2023-05-14T11:37:14;15.48;;;13.57;;
25922;SDS011;13725;51.170;4.442;2023-05-14T11:39:48;19.70;;;14.18;;
25922;SDS011;13725;51.170;4.442;2023-05-14T11:42:16;16.08;;;14.10;;
25922;SDS011;13725;51.170;4.442;2023-05-14T11:44:49;15.00;;;12.40;;
25922;SDS011;13725;51.170;4.442;2023-05-14T11:47:16;17.42;;;13.82;;
25922;SDS011;13725;51.170;4.442;2023-05-14T11:49:43;16.52;;;12.65;;
25922;SDS011;13725;51.170;4.442;2023-05-14T11:52:10;17.38;;;12.82;;
25922;SDS011;13725;51.170;4.442;2023-05-14T11:54:41;14.90;;;11.88;;
25922;SDS011;13725;51.170;4.442;2023-05-14T11:57:12;16.90;;;12.85;;
25922;SDS011;13725;51.170;4.442;2023-05-14T11:59:43;15.27;;;12.32;;
25922;SDS011;13725;51.170;4.442;2023-05-14T12:02:14;13.40;;;11.82;;
25922;SDS011;13725;51.170;4.442;2023-05-14T12:04:41;17.25;;;11.50;;
25922;SDS011;13725;51.170;4.442;2023-05-14T12:07:09;15.90;;;12.05;;
25922;SDS011;13725;51.170;4.442;2023-05-14T12:09:37;15.05;;;11.50;;
25922;SDS011;13725;51.170;4.442;2023-05-14T12:12:07;15.65;;;11.65;;
25922;SDS011;13725;51.170;4.442;2023-05-14T12:14:37;14.65;;;11.93;;
25922;SDS011;13725;51.170;4.442;2023-05-14T12:17:10;15.65;;;11.75;;
25922;SDS011;13725;51.170;4.442;2023-05-14T12:19:41;14.25;;;10.88;;
25922;SDS011;13725;51.170;4.442;2023-05-14T12:22:08;14.10;;;11.80;;
25922;SDS011;13725;51.170;4.442;2023-05-14T12:24:35;13.98;;;10.63;;
25922;SDS011;13725;51.170;4.442;2023-05-14T12:27:03;12.50;;;10.70;;
25922;SDS011;13725;51.170;4.442;2023-05-14T12:29:29;15.13;;;11.45;;
25922;SDS011;13725;51.170;4.442;2023-05-14T12:31:59;17.13;;;12.20;;
25922;SDS011;13725;51.170;4.442;2023-05-14T12:34:25;11.88;;;9.38;;
25922;SDS011;13725;51.170;4.442;2023-05-14T12:36:50;15.32;;;10.63;;
25922;SDS011;13725;51.170;4.442;2023-05-14T12:39:16;18.08;;;10.35;;
25922;SDS011;13725;51.170;4.442;2023-05-14T12:41:42;13.32;;;9.27;;
25922;SDS011;13725;51.170;4.442;2023-05-14T12:44:08;13.95;;;10.68;;
25922;SDS011;13725;51.170;4.442;2023-05-14T12:46:33;16.27;;;9.85;;
25922;SDS011;13725;51.170;4.442;2023-05-14T12:48:59;15.73;;;10.20;;
25922;SDS011;13725;51.170;4.442;2023-05-14T12:51:25;13.27;;;9.13;;
25922;SDS011;13725;51.170;4.442;2023-05-14T12:53:51;17.52;;;10.23;;
25922;SDS011;13725;51.170;4.442;2023-05-14T12:56:18;14.18;;;10.50;;
25922;SDS011;13725;51.170;4.442;2023-05-14T12:58:46;13.10;;;9.02;;
25922;SDS011;13725;51.170;4.442;2023-05-14T13:01:12;14.75;;;9.20;;
25922;SDS011;13725;51.170;4.442;2023-05-14T13:03:38;13.07;;;9.75;;
25922;SDS011;13725;51.170;4.442;2023-05-14T13:06:03;12.40;;;8.52;;
25922;SDS011;13725;51.170;4.442;2023-05-14T13:08:29;12.57;;;8.18;;
25922;SDS011;13725;51.170;4.442;2023-05-14T13:10:55;14.80;;;9.15;;
25922;SDS011;13725;51.170;4.442;2023-05-14T13:13:21;18.83;;;9.68;;
25922;SDS011;13725;51.170;4.442;2023-05-14T13:15:48;15.50;;;9.35;;
25922;SDS011;13725;51.170;4.442;2023-05-14T13:18:14;13.85;;;9.25;;
25922;SDS011;13725;51.170;4.442;2023-05-14T13:20:41;13.75;;;9.27;;
25922;SDS011;13725;51.170;4.442;2023-05-14T13:23:06;13.85;;;8.45;;
25922;SDS011;13725;51.170;4.442;2023-05-14T13:25:32;16.58;;;8.68;;
25922;SDS011;13725;51.170;4.442;2023-05-14T13:27:59;16.10;;;8.95;;
25922;SDS011;13725;51.170;4.442;2023-05-14T13:30:25;18.02;;;8.18;;
25922;SDS011;13725;51.170;4.442;2023-05-14T13:32:51;15.52;;;9.00;;
25922;SDS011;13725;51.170;4.442;2023-05-14T13:35:16;11.98;;;8.63;;
25922;SDS011;13725;51.170;4.442;2023-05-14T13:37:42;13.32;;;9.23;;
25922;SDS011;13725;51.170;4.442;2023-05-14T13:40:08;12.35;;;8.65;;
25922;SDS011;13725;51.170;4.442;2023-05-14T13:42:35;18.50;;;8.98;;
25922;SDS011;13725;51.170;4.442;2023-05-14T13:45:01;16.42;;;9.23;;
25922;SDS011;13725;51.170;4.442;2023-05-14T13:47:28;14.15;;;8.57;;
25922;SDS011;13725;51.170;4.442;2023-05-14T13:49:54;14.48;;;8.05;;
25922;SDS011;13725;51.170;4.442;2023-05-14T13:52:20;15.75;;;9.50;;
25922;SDS011;13725;51.170;4.442;2023-05-14T13:54:47;16.55;;;7.70;;
25922;SDS011;13725;51.170;4.442;2023-05-14T13:57:13;11.05;;;7.15;;
25922;SDS011;13725;51.170;4.442;2023-05-14T13:59:39;17.42;;;8.02;;
25922;SDS011;13725;51.170;4.442;2023-05-14T14:02:06;11.82;;;7.50;;
25922;SDS011;13725;51.170;4.442;2023-05-14T14:04:32;14.93;;;7.68;;
25922;SDS011;13725;51.170;4.442;2023-05-14T14:06:58;11.77;;;7.22;;
25922;SDS011;13725;51.170;4.442;2023-05-14T14:09:24;14.00;;;8.35;;
25922;SDS011;13725;51.170;4.442;2023-05-14T14:11:49;17.55;;;9.43;;
25922;SDS011;13725;51.170;4.442;2023-05-14T14:14:16;12.77;;;8.18;;
25922;SDS011;13725;51.170;4.442;2023-05-14T14:16:42;18.05;;;8.18;;
25922;SDS011;13725;51.170;4.442;2023-05-14T14:19:08;13.10;;;7.95;;
25922;SDS011;13725;51.170;4.442;2023-05-14T14:21:34;15.02;;;7.68;;
25922;SDS011;13725;51.170;4.442;2023-05-14T14:24:03;12.27;;;7.43;;
25922;SDS011;13725;51.170;4.442;2023-05-14T14:26:30;14.02;;;8.05;;
25922;SDS011;13725;51.170;4.442;2023-05-14T14:28:56;15.52;;;8.52;;
25922;SDS011;13725;51.170;4.442;2023-05-14T14:31:22;13.10;;;7.43;;